Time;durP1;ratioP1;P1;durP2;ratioP2;P2;SDS_P1;SDS_P2;PMS_P1;PMS_P2;Temp;Humidity;BMP_temperature;BMP_pressure;BME280_temperature;BME280_humidity;BME280_pressure;Samples;Min_cycle;Max_cycle;Signal;HPM_P1;HPM_P2
2019/12/31 00:00:30;;;;;;;40.8;32.2;;;;;;;1.8;78.55566;974.005;;;;
2019/12/31 00:02:56;;;;;;;38.1;31.8;;;;;;;1.79;78.74805;974.0355;;;;
2019/12/31 00:05:21;;;;;;;40.8;31.1;;;;;;;1.86;78.42773;974.0258;;;;
2019/12/31 00:07:46;;;;;;;39.8;30.9;;;;;;;1.91;78.33398;973.9955;;;;
2019/12/31 00:10:11;;;;;;;41.3;32.5;;;;;;;1.85;78.66797;974.0042;;;;
2019/12/31 00:15:01;;;;;;;37.4;29.2;;;;;;;1.91;78.79395;974.0589;;;;
2019/12/31 00:17:26;;;;;;;35.5;28.2;;;;;;;2.06;78.24707;974.003;;;;
2019/12/31 00:19:51;;;;;;;36.5;29.9;;;;;;;2.03;78.10254;973.8791;;;;
2019/12/31 00:22:16;;;;;;;39.5;30.7;;;;;;;2.03;77.97656;973.9177;;;;
2019/12/31 00:24:41;;;;;;;40.6;31.6;;;;;;;2.01;78.13379;974.0349;;;;
2019/12/31 00:27:06;;;;;;;38.7;31.2;;;;;;;2.02;78.14746;973.9852;;;;
2019/12/31 00:29:31;;;;;;;42.3;31.3;;;;;;;1.99;78.43945;974.0017;;;;
2019/12/31 00:31:56;;;;;;;38.9;30.6;;;;;;;1.97;78.32129;974.094;;;;
2019/12/31 00:34:21;;;;;;;36.9;29.4;;;;;;;1.95;78.62793;974.1185;;;;
2019/12/31 00:36:46;;;;;;;39.9;30.4;;;;;;;1.98;78.68066;974.0747;;;;
2019/12/31 00:39:11;;;;;;;35.7;29.3;;;;;;;2.07;78.14648;974.0527;;;;
2019/12/31 00:41:37;;;;;;;34.3;29.1;;;;;;;2.18;77.70508;974.0463;;;;
2019/12/31 00:44:02;;;;;;;35;28;;;;;;;2.19;77.86719;974.0708;;;;
2019/12/31 00:46:27;;;;;;;35.8;28.7;;;;;;;2.1;78.02344;974.0547;;;;
2019/12/31 00:48:52;;;;;;;35.4;28.6;;;;;;;2.2;77.8252;974.1189;;;;
2019/12/31 00:51:18;;;;;;;35.3;28.5;;;;;;;2.31;77.58008;974.0988;;;;
2019/12/31 00:53:43;;;;;;;34.3;28.4;;;;;;;2.31;77.38477;974.1654;;;;
2019/12/31 00:56:08;;;;;;;32.4;27;;;;;;;2.48;76.94531;974.2199;;;;
2019/12/31 00:58:33;;;;;;;35.4;27.9;;;;;;;2.54;76.46094;974.2172;;;;
2019/12/31 01:00:58;;;;;;;34.6;27.7;;;;;;;2.48;76.79395;974.236;;;;
2019/12/31 01:03:24;;;;;;;37.3;29.6;;;;;;;2.38;77.00586;974.198;;;;
2019/12/31 01:05:49;;;;;;;36.8;29;;;;;;;2.35;77.24121;974.1866;;;;
2019/12/31 01:08:14;;;;;;;38.4;30.1;;;;;;;2.35;77.37891;974.1817;;;;
2019/12/31 01:12:08;;;;;;;37.6;29.7;;;;;;;2.57;76.09766;974.1669;;;;
2019/12/31 01:14:33;;;;;;;38;30.2;;;;;;;2.59;76.10156;974.2302;;;;
2019/12/31 01:16:58;;;;;;;39.9;31;;;;;;;2.57;75.86816;974.2087;;;;
2019/12/31 01:19:23;;;;;;;37;28.8;;;;;;;2.47;76.71191;974.241;;;;
2019/12/31 01:21:48;;;;;;;38.4;29.5;;;;;;;2.42;76.70215;974.244;;;;
2019/12/31 01:24:13;;;;;;;35.5;27.6;;;;;;;2.47;76.33203;974.2562;;;;
2019/12/31 01:26:38;;;;;;;35.5;28.7;;;;;;;2.44;76.31543;974.3008;;;;
2019/12/31 01:29:03;;;;;;;35.7;28.4;;;;;;;2.4;76.46875;974.2621;;;;
2019/12/31 01:31:28;;;;;;;36;27.9;;;;;;;2.3;77.12988;974.2413;;;;
2019/12/31 01:33:53;;;;;;;38.8;28.7;;;;;;;2.31;76.82227;974.2537;;;;
2019/12/31 01:36:18;;;;;;;36.9;27.9;;;;;;;2.3;76.63574;974.1859;;;;
2019/12/31 01:38:43;;;;;;;33.3;26.2;;;;;;;2.22;77.3457;974.2753;;;;
2019/12/31 01:41:08;;;;;;;33.5;27.4;;;;;;;2.22;77.05762;974.2858;;;;
2019/12/31 01:43:34;;;;;;;35.2;26.6;;;;;;;2.19;77.44238;974.3536;;;;
2019/12/31 01:45:59;;;;;;;35.4;26.4;;;;;;;2.11;77.85352;974.3588;;;;
2019/12/31 01:48:24;;;;;;;39.2;30.2;;;;;;;2;78.00586;974.366;;;;
2019/12/31 01:50:49;;;;;;;34.6;27.1;;;;;;;1.96;78.35547;974.3198;;;;
2019/12/31 01:53:14;;;;;;;33.9;26.8;;;;;;;1.96;78.4707;974.3134;;;;
2019/12/31 01:55:39;;;;;;;35.2;28;;;;;;;1.96;78.18359;974.2701;;;;
2019/12/31 01:58:04;;;;;;;33.1;26.1;;;;;;;1.82;78.41016;974.295;;;;
2019/12/31 02:00:29;;;;;;;33.7;25.5;;;;;;;1.91;78.17383;974.277;;;;
2019/12/31 02:05:24;;;;;;;32.9;25.8;;;;;;;1.85;77.72461;974.1873;;;;
2019/12/31 02:07:45;;;;;;;33;25.3;;;;;;;1.85;77.66797;974.2283;;;;
2019/12/31 02:10:10;;;;;;;31.2;24.2;;;;;;;1.81;77.48926;974.1883;;;;
2019/12/31 02:12:35;;;;;;;30.3;23.8;;;;;;;1.76;78.74121;974.1523;;;;
2019/12/31 02:15:00;;;;;;;30.6;23.6;;;;;;;1.84;78.58594;974.0879;;;;
2019/12/31 02:17:25;;;;;;;31.2;24.8;;;;;;;1.85;78.19629;974.1384;;;;
2019/12/31 02:19:50;;;;;;;29.9;23.4;;;;;;;1.87;78.1084;974.1052;;;;
2019/12/31 02:22:15;;;;;;;30.3;24;;;;;;;1.92;77.69238;974.0845;;;;
2019/12/31 02:24:41;;;;;;;26.5;21.6;;;;;;;1.98;77.55469;973.98;;;;
2019/12/31 02:27:06;;;;;;;36.4;26.8;;;;;;;1.97;77.33301;974.0137;;;;
2019/12/31 02:29:31;;;;;;;42.8;31.1;;;;;;;1.92;77.12988;974.0853;;;;
2019/12/31 02:31:56;;;;;;;63.6;40.2;;;;;;;1.86;76.95801;974.0706;;;;
2019/12/31 02:34:21;;;;;;;39.5;27.8;;;;;;;1.91;77.3125;973.9899;;;;
2019/12/31 02:39:11;;;;;;;40.4;28.2;;;;;;;1.94;76.53613;973.954;;;;
2019/12/31 02:41:36;;;;;;;36.9;27.2;;;;;;;1.92;76.37207;973.9007;;;;
2019/12/31 02:44:02;;;;;;;36.1;26.3;;;;;;;1.83;76.02344;973.9524;;;;
2019/12/31 02:46:27;;;;;;;32.8;24.5;;;;;;;1.87;76.13281;973.984;;;;
2019/12/31 02:48:52;;;;;;;30.8;24.2;;;;;;;1.67;76.95703;973.9689;;;;
2019/12/31 02:51:17;;;;;;;34.7;25.4;;;;;;;1.64;76.78027;973.9821;;;;
2019/12/31 02:53:42;;;;;;;31.8;25.1;;;;;;;1.69;76.42285;974.0033;;;;
2019/12/31 02:56:07;;;;;;;32.4;23.1;;;;;;;1.68;76.3291;974.0112;;;;
2019/12/31 02:58:32;;;;;;;29.5;22.6;;;;;;;1.61;76.09668;974.1061;;;;
2019/12/31 03:00:57;;;;;;;29.8;23.4;;;;;;;1.68;75.9834;974.0891;;;;
2019/12/31 03:03:23;;;;;;;32.5;23.7;;;;;;;1.62;75.87012;974.0483;;;;
2019/12/31 03:05:48;;;;;;;27.9;21.9;;;;;;;1.58;76.39063;974.0336;;;;
2019/12/31 03:08:13;;;;;;;29.8;22.7;;;;;;;1.53;76.66797;974.0156;;;;
2019/12/31 03:10:38;;;;;;;27.2;22.3;;;;;;;1.41;76.78516;974.0226;;;;
2019/12/31 03:13:03;;;;;;;26.1;20.7;;;;;;;1.46;76.32227;974.0309;;;;
2019/12/31 03:15:29;;;;;;;27.1;21;;;;;;;1.43;76.24902;974.053;;;;
2019/12/31 03:17:54;;;;;;;26.7;20.9;;;;;;;1.48;76.26855;974.0698;;;;
2019/12/31 03:20:19;;;;;;;26.8;21.2;;;;;;;1.49;76.05176;974.0033;;;;
2019/12/31 03:22:44;;;;;;;25.3;20.6;;;;;;;1.42;76.27051;974.0009;;;;
2019/12/31 03:25:10;;;;;;;27.6;20.7;;;;;;;1.37;76.66211;974.0134;;;;
2019/12/31 03:27:35;;;;;;;27.7;21.7;;;;;;;1.46;76.44824;974.0005;;;;
2019/12/31 03:30:00;;;;;;;27;21.1;;;;;;;1.31;77.22461;974.0864;;;;
2019/12/31 03:32:25;;;;;;;24.6;20.3;;;;;;;1.3;77.27051;974.0728;;;;
2019/12/31 03:34:50;;;;;;;24.3;19.3;;;;;;;1.27;76.64258;974.1125;;;;
2019/12/31 03:37:15;;;;;;;23.9;18.8;;;;;;;1.24;76.45605;974.1256;;;;
2019/12/31 03:39:40;;;;;;;23.5;19.5;;;;;;;1.28;76.03809;974.1052;;;;
2019/12/31 03:42:06;;;;;;;25.2;19.9;;;;;;;1.23;76.36133;974.1994;;;;
2019/12/31 03:44:31;;;;;;;26.4;20.3;;;;;;;1.23;76.24707;974.1827;;;;
2019/12/31 03:46:56;;;;;;;23.9;18.5;;;;;;;1.28;76.26758;974.2383;;;;
2019/12/31 03:49:21;;;;;;;24.6;19.8;;;;;;;1.25;76.45605;974.2411;;;;
2019/12/31 03:51:46;;;;;;;25.6;20.1;;;;;;;1.27;76.40332;974.3056;;;;
2019/12/31 03:54:11;;;;;;;26.1;20.8;;;;;;;1.32;76.49219;974.3284;;;;
2019/12/31 03:56:36;;;;;;;29.3;23.4;;;;;;;1.27;77.32129;974.2271;;;;
2019/12/31 03:59:02;;;;;;;27;21.8;;;;;;;1.15;77.22949;974.2058;;;;
2019/12/31 04:02:26;;;;;;;27.1;21.5;;;;;;;1.03;78.29785;974.2534;;;;
2019/12/31 04:04:51;;;;;;;23.7;19.1;;;;;;;0.98;78.2998;974.3116;;;;
2019/12/31 04:07:58;;;;;;;22.8;18.9;;;;;;;0.99;77.69336;974.3492;;;;
2019/12/31 04:09:46;;;;;;;25.4;18.9;;;;;;;1.01;76.75684;974.4012;;;;
2019/12/31 04:12:06;;;;;;;24.8;18.7;;;;;;;0.96;77.21875;974.4008;;;;
2019/12/31 04:14:31;;;;;;;23.9;18.4;;;;;;;1.01;76.83691;974.3948;;;;
2019/12/31 04:16:56;;;;;;;23.9;18.6;;;;;;;1.02;76.9082;974.3588;;;;
2019/12/31 04:19:21;;;;;;;24.5;19.4;;;;;;;0.92;76.8916;974.3715;;;;
2019/12/31 04:21:46;;;;;;;25;18.9;;;;;;;0.94;76.74414;974.3386;;;;
2019/12/31 04:24:12;;;;;;;23.2;17.7;;;;;;;0.97;77.30078;974.2606;;;;
2019/12/31 04:26:37;;;;;;;22.9;18;;;;;;;0.92;77.64648;974.2346;;;;
2019/12/31 04:29:02;;;;;;;22.9;18.6;;;;;;;1;77.13574;974.1577;;;;
2019/12/31 04:31:27;;;;;;;22.8;18.3;;;;;;;1.04;76.39648;974.235;;;;
2019/12/31 04:33:52;;;;;;;22.7;18.5;;;;;;;1.03;76.17773;974.2086;;;;
2019/12/31 04:36:17;;;;;;;24.8;18.7;;;;;;;0.94;76.77832;974.2161;;;;
2019/12/31 04:38:42;;;;;;;23.4;18.9;;;;;;;0.95;76.72461;974.2983;;;;
2019/12/31 04:41:07;;;;;;;22.5;18.5;;;;;;;0.98;75.99609;974.2394;;;;
2019/12/31 04:43:33;;;;;;;22.5;17.4;;;;;;;0.95;75.40723;974.2886;;;;
2019/12/31 04:45:58;;;;;;;24.4;18.7;;;;;;;0.91;75.52344;974.2938;;;;
2019/12/31 04:48:23;;;;;;;23.4;18.9;;;;;;;0.89;75.86523;974.2605;;;;
2019/12/31 04:50:48;;;;;;;27.4;20.9;;;;;;;0.86;76.33105;974.24;;;;
2019/12/31 04:53:13;;;;;;;24.9;20.4;;;;;;;0.68;76.62793;974.1649;;;;
2019/12/31 04:55:38;;;;;;;24;19.4;;;;;;;0.52;78.31836;974.1228;;;;
2019/12/31 04:58:04;;;;;;;23;19.4;;;;;;;0.52;78.92285;974.1085;;;;
2019/12/31 05:00:29;;;;;;;20.9;17.4;;;;;;;0.71;77.96484;974.0652;;;;
2019/12/31 05:05:19;;;;;;;22.2;18.3;;;;;;;0.78;76.92383;974.2247;;;;
2019/12/31 05:07:44;;;;;;;20.2;17.2;;;;;;;0.79;76.59082;974.191;;;;
2019/12/31 05:10:09;;;;;;;22;18.5;;;;;;;0.59;77.62109;974.1046;;;;
2019/12/31 05:12:35;;;;;;;21.6;17.9;;;;;;;0.44;78.44043;974.1106;;;;
2019/12/31 05:15:00;;;;;;;19.5;16.7;;;;;;;0.4;78.82129;973.9836;;;;
2019/12/31 05:17:25;;;;;;;18.9;15.4;;;;;;;0.53;79.10938;973.9872;;;;
2019/12/31 05:19:50;;;;;;;20;16;;;;;;;0.65;78.27246;973.9943;;;;
2019/12/31 05:22:16;;;;;;;21;14.7;;;;;;;0.8;77.52246;974.0545;;;;
2019/12/31 05:24:41;;;;;;;17.3;14.8;;;;;;;0.92;77.11914;974.0735;;;;
2019/12/31 05:27:06;;;;;;;17.3;14.6;;;;;;;1.02;77.05859;974.082;;;;
2019/12/31 05:29:31;;;;;;;18.6;15.1;;;;;;;1.03;76.95703;974.1197;;;;
2019/12/31 05:31:56;;;;;;;17.5;14.1;;;;;;;1.16;76.3252;974.1689;;;;
2019/12/31 05:34:21;;;;;;;18.3;14.5;;;;;;;1.21;75.7041;974.2503;;;;
2019/12/31 05:36:47;;;;;;;17.5;14.1;;;;;;;1.15;75.0166;974.1722;;;;
2019/12/31 05:39:12;;;;;;;18.2;14.6;;;;;;;1.07;75.25488;974.1545;;;;
2019/12/31 05:41:37;;;;;;;18.6;15;;;;;;;1.09;75.29297;974.1345;;;;
2019/12/31 05:44:02;;;;;;;18.6;14;;;;;;;1.15;75.41797;974.2211;;;;
2019/12/31 05:46:27;;;;;;;18.7;14.8;;;;;;;1.16;75.43164;974.2363;;;;
2019/12/31 05:48:52;;;;;;;17.7;14.7;;;;;;;1.12;74.97656;974.2126;;;;
2019/12/31 05:51:18;;;;;;;18.7;14.5;;;;;;;1.08;75.61328;974.2122;;;;
2019/12/31 05:53:43;;;;;;;17.5;14.2;;;;;;;1.13;75.24512;974.2595;;;;
2019/12/31 05:56:08;;;;;;;19.2;14.3;;;;;;;1.13;74.96777;974.3792;;;;
2019/12/31 05:58:33;;;;;;;18.9;15;;;;;;;1.16;74.89355;974.4309;;;;
2019/12/31 06:00:58;;;;;;;18.5;14.7;;;;;;;1.15;74.91406;974.4398;;;;
2019/12/31 06:03:23;;;;;;;17.9;14.2;;;;;;;1.17;74.56348;974.4951;;;;
2019/12/31 06:05:49;;;;;;;17.4;14.4;;;;;;;1.1;74.33301;974.4747;;;;
2019/12/31 06:08:14;;;;;;;17.9;14.5;;;;;;;0.92;75.125;974.4596;;;;
2019/12/31 06:10:39;;;;;;;18.6;14.7;;;;;;;1.05;74.63281;974.4402;;;;
2019/12/31 06:13:05;;;;;;;18;15;;;;;;;1.01;74.94629;974.4068;;;;
2019/12/31 06:15:30;;;;;;;17;14.2;;;;;;;0.96;75.92383;974.3616;;;;
2019/12/31 06:17:55;;;;;;;19.4;14.9;;;;;;;0.98;75.82422;974.3211;;;;
2019/12/31 06:20:20;;;;;;;20.1;15.6;;;;;;;0.96;75.37207;974.231;;;;
2019/12/31 06:22:45;;;;;;;21.9;17.2;;;;;;;1.07;75.70215;974.2547;;;;
2019/12/31 06:25:22;;;;;;;19.4;15.9;;;;;;;0.99;75.52734;974.3139;;;;
2019/12/31 06:27:47;;;;;;;19.6;15.5;;;;;;;0.99;75.38965;974.3315;;;;
2019/12/31 06:30:12;;;;;;;19.3;15.7;;;;;;;0.91;75.47754;974.2778;;;;
2019/12/31 06:32:37;;;;;;;18.2;14.9;;;;;;;0.89;75.10742;974.206;;;;
2019/12/31 06:35:03;;;;;;;17.7;14.9;;;;;;;0.75;75.66895;974.173;;;;
2019/12/31 06:37:28;;;;;;;18.6;15.5;;;;;;;0.73;76.2041;974.1666;;;;
2019/12/31 06:39:53;;;;;;;19.1;15.1;;;;;;;0.74;75.49512;974.2186;;;;
2019/12/31 06:42:18;;;;;;;21.6;16.3;;;;;;;0.77;75.56836;974.1959;;;;
2019/12/31 06:44:43;;;;;;;19.1;15;;;;;;;0.78;75.57031;974.2327;;;;
2019/12/31 06:47:08;;;;;;;17.6;14.9;;;;;;;0.84;75.27148;974.2745;;;;
2019/12/31 06:49:33;;;;;;;18.7;15.2;;;;;;;0.86;75.37793;974.252;;;;
2019/12/31 06:51:58;;;;;;;18.9;15.3;;;;;;;0.73;75.09277;974.1617;;;;
2019/12/31 06:54:23;;;;;;;18.1;15;;;;;;;0.68;75.74609;974.2253;;;;
2019/12/31 06:56:48;;;;;;;20;14.7;;;;;;;0.67;75.54004;974.2721;;;;
2019/12/31 06:59:13;;;;;;;18.2;15.2;;;;;;;0.58;74.8125;974.3376;;;;
2019/12/31 07:01:38;;;;;;;20.6;15.7;;;;;;;0.58;75.62695;974.2839;;;;
2019/12/31 07:04:03;;;;;;;20.1;15.1;;;;;;;0.67;75.28809;974.3122;;;;
2019/12/31 07:06:29;;;;;;;18.9;15.5;;;;;;;0.66;75.2041;974.3329;;;;
2019/12/31 07:08:54;;;;;;;21;15.1;;;;;;;0.99;81.0293;974.378;;;;
2019/12/31 07:11:19;;;;;;;20.8;15.8;;;;;;;0.96;76.91992;974.3407;;;;
2019/12/31 07:13:44;;;;;;;18.7;15.2;;;;;;;0.88;74.75098;974.3887;;;;
2019/12/31 07:25:40;;;;;;;21.8;16.2;;;;;;;0.72;75.91406;974.4456;;;;
2019/12/31 07:28:04;;;;;;;19.6;15.9;;;;;;;0.69;76.17285;974.4367;;;;
2019/12/31 07:30:29;;;;;;;21.2;15.7;;;;;;;0.67;74.99023;974.4796;;;;
2019/12/31 07:32:54;;;;;;;19.2;15.1;;;;;;;0.86;74.78418;974.5644;;;;
2019/12/31 07:35:19;;;;;;;18;15.3;;;;;;;0.97;74.21777;974.585;;;;
2019/12/31 07:37:44;;;;;;;20.2;15.7;;;;;;;1.04;73.97852;974.6412;;;;
2019/12/31 07:40:09;;;;;;;17.4;14.6;;;;;;;1;74.19922;974.6191;;;;
2019/12/31 07:42:34;;;;;;;17.3;14.6;;;;;;;1;74.13086;974.5854;;;;
2019/12/31 07:44:59;;;;;;;17.5;14.1;;;;;;;0.99;74.67969;974.5798;;;;
2019/12/31 07:47:24;;;;;;;17.9;13.9;;;;;;;1.05;75.30957;974.6019;;;;
2019/12/31 07:49:49;;;;;;;17.5;13.4;;;;;;;1.01;74.69434;974.5975;;;;
2019/12/31 07:52:14;;;;;;;17;14.7;;;;;;;1.03;74.30762;974.7197;;;;
2019/12/31 07:54:40;;;;;;;16.8;14.1;;;;;;;1.19;73.90137;974.8658;;;;
2019/12/31 07:57:05;;;;;;;14.7;13;;;;;;;3.13;66.88965;974.9005;;;;
2019/12/31 07:59:30;;;;;;;16.1;13;;;;;;;4.29;61.86328;974.903;;;;
2019/12/31 08:01:55;;;;;;;16.5;14.2;;;;;;;4.39;61.38184;974.9177;;;;
2019/12/31 08:04:20;;;;;;;20.2;15.1;;;;;;;4.02;62.56445;974.9553;;;;
2019/12/31 08:06:45;;;;;;;15.3;13.1;;;;;;;4.2;62.32422;974.9338;;;;
2019/12/31 08:09:10;;;;;;;16.7;14.4;;;;;;;4.99;60.53125;974.8876;;;;
2019/12/31 08:11:35;;;;;;;17.3;14;;;;;;;5.43;58.99414;974.9455;;;;
2019/12/31 08:14:01;;;;;;;17.4;14.9;;;;;;;6.04;57.08398;975.0261;;;;
2019/12/31 08:16:26;;;;;;;17.8;14.9;;;;;;;5.68;57.91699;974.9935;;;;
2019/12/31 08:18:51;;;;;;;20.8;15.3;;;;;;;5.84;57.8457;974.9158;;;;
2019/12/31 08:21:16;;;;;;;22.4;16.1;;;;;;;6.42;56.28711;974.9294;;;;
2019/12/31 08:23:41;;;;;;;18;14.4;;;;;;;6.7;55.34961;974.873;;;;
2019/12/31 08:26:06;;;;;;;16.3;13.5;;;;;;;7.23;54.0332;974.8884;;;;
2019/12/31 08:28:31;;;;;;;16.2;14;;;;;;;7.03;53.99707;974.8745;;;;
2019/12/31 08:30:56;;;;;;;17.9;13.8;;;;;;;7.04;55.03223;974.892;;;;
2019/12/31 08:33:21;;;;;;;17.1;13.9;;;;;;;7.48;53.29688;974.942;;;;
2019/12/31 08:35:47;;;;;;;17.2;13.2;;;;;;;8.36;51.00293;974.9539;;;;
2019/12/31 08:38:12;;;;;;;16.6;14.2;;;;;;;10.84;45.35059;975.0292;;;;
2019/12/31 08:40:37;;;;;;;19.3;14.5;;;;;;;12.98;39.30566;975.0251;;;;
2019/12/31 08:43:02;;;;;;;19.1;15.4;;;;;;;11.63;41.7334;974.9974;;;;
2019/12/31 08:45:27;;;;;;;18.5;15.2;;;;;;;8.97;48.4834;975.0276;;;;
2019/12/31 08:47:52;;;;;;;17.6;13.7;;;;;;;7.78;52.98438;975.0685;;;;
2019/12/31 08:50:18;;;;;;;18.7;15.2;;;;;;;6.98;55.78027;975.171;;;;
2019/12/31 08:52:43;;;;;;;19.6;15.4;;;;;;;6.74;56.68945;975.3561;;;;
2019/12/31 08:55:08;;;;;;;18.2;14.8;;;;;;;6.51;57.9375;975.4472;;;;
2019/12/31 08:59:58;;;;;;;20.3;15.2;;;;;;;6.13;59.75195;975.5598;;;;
2019/12/31 09:02:23;;;;;;;18.4;14.6;;;;;;;6.15;59.97656;975.5707;;;;
2019/12/31 09:04:48;;;;;;;17;14.7;;;;;;;6;60.84766;975.6508;;;;
2019/12/31 09:07:13;;;;;;;18.1;13.8;;;;;;;6.19;60.0752;975.6969;;;;
2019/12/31 09:09:39;;;;;;;17.1;13.8;;;;;;;6.29;60.22852;975.7461;;;;
2019/12/31 09:12:04;;;;;;;16.8;12.9;;;;;;;6.35;59.96875;975.767;;;;
2019/12/31 09:14:29;;;;;;;16.2;12.8;;;;;;;6.32;60.41797;975.8922;;;;
2019/12/31 09:16:54;;;;;;;13;10.6;;;;;;;6.49;58.45605;975.9021;;;;
2019/12/31 09:19:19;;;;;;;13.1;10.5;;;;;;;6.66;58.39746;975.9278;;;;
2019/12/31 09:21:44;;;;;;;13.8;10.9;;;;;;;6.72;57.42969;975.8469;;;;
2019/12/31 09:24:09;;;;;;;14.2;11.1;;;;;;;6.91;57.60742;975.9958;;;;
2019/12/31 09:26:35;;;;;;;17.7;13.4;;;;;;;6.68;58.31934;976.0952;;;;
2019/12/31 09:29:00;;;;;;;16.2;13.9;;;;;;;6.77;58.56445;976.1881;;;;
2019/12/31 09:31:25;;;;;;;18;14.7;;;;;;;6.86;58.84375;976.0935;;;;
2019/12/31 09:33:50;;;;;;;17.1;14;;;;;;;7;57.63184;976.1392;;;;
2019/12/31 09:36:15;;;;;;;19.5;13.7;;;;;;;7.13;56.92676;976.1105;;;;
2019/12/31 09:38:40;;;;;;;15.8;13;;;;;;;7.17;57.3623;976.0914;;;;
2019/12/31 09:41:05;;;;;;;13.7;11.3;;;;;;;7.14;54.62793;976.0815;;;;
2019/12/31 09:43:30;;;;;;;16;11.6;;;;;;;7.19;55.98242;976.098;;;;
2019/12/31 09:45:56;;;;;;;15.3;11.7;;;;;;;7.26;56.43164;976.0691;;;;
2019/12/31 09:48:21;;;;;;;15.2;11.8;;;;;;;7.31;56.69531;976.0789;;;;
2019/12/31 09:50:46;;;;;;;15.8;12;;;;;;;7.27;55.77148;976.0963;;;;
2019/12/31 09:53:11;;;;;;;14.9;11.7;;;;;;;7.27;55.52734;976.165;;;;
2019/12/31 09:55:36;;;;;;;14;11.3;;;;;;;7.24;54.75488;976.1515;;;;
2019/12/31 09:58:01;;;;;;;12.7;10.8;;;;;;;7.2;55.44824;976.2216;;;;
2019/12/31 10:00:26;;;;;;;14.6;11.1;;;;;;;7.13;56.3584;976.2957;;;;
2019/12/31 10:02:51;;;;;;;13.5;10.9;;;;;;;7.1;55.92285;976.3494;;;;
2019/12/31 10:05:17;;;;;;;12.7;10.9;;;;;;;7.09;55.6543;976.3164;;;;
2019/12/31 10:07:42;;;;;;;12.9;10.5;;;;;;;7.06;55.98828;976.2025;;;;
2019/12/31 10:10:07;;;;;;;13.1;10.3;;;;;;;7.05;54.97559;976.1597;;;;
2019/12/31 10:12:32;;;;;;;11.3;9.8;;;;;;;6.97;55.23242;976.1622;;;;
2019/12/31 10:14:57;;;;;;;12.6;10;;;;;;;6.9;55.51367;976.1587;;;;
2019/12/31 10:17:23;;;;;;;12.2;10.2;;;;;;;6.82;54.96973;976.2095;;;;
2019/12/31 10:19:48;;;;;;;12.2;10.1;;;;;;;6.85;55.04297;976.1155;;;;
2019/12/31 10:22:13;;;;;;;11.7;9.8;;;;;;;6.87;54.37109;976.2425;;;;
2019/12/31 10:24:38;;;;;;;12.5;10.2;;;;;;;6.87;54.74219;976.1564;;;;
2019/12/31 10:27:03;;;;;;;11.9;9.5;;;;;;;6.87;54.58008;976.1244;;;;
2019/12/31 10:29:28;;;;;;;12.3;10.3;;;;;;;6.88;54.75586;976.1138;;;;
2019/12/31 10:31:53;;;;;;;11.9;9.6;;;;;;;6.85;54.2168;976.0549;;;;
2019/12/31 10:34:18;;;;;;;12;10;;;;;;;6.99;55.11914;975.9535;;;;
2019/12/31 10:36:44;;;;;;;11.8;10.1;;;;;;;6.93;54.39063;975.9504;;;;
2019/12/31 10:39:09;;;;;;;10.9;9.5;;;;;;;6.95;54.24219;975.9684;;;;
2019/12/31 10:41:34;;;;;;;12;9.7;;;;;;;6.99;54.79297;975.9308;;;;
2019/12/31 10:43:59;;;;;;;12;9.4;;;;;;;6.99;53.96777;975.9478;;;;
2019/12/31 10:46:24;;;;;;;12.6;10;;;;;;;7;54.08691;975.9419;;;;
2019/12/31 10:48:49;;;;;;;11.7;9.7;;;;;;;7.02;53.99609;975.827;;;;
2019/12/31 10:51:14;;;;;;;12.9;9.3;;;;;;;7.11;53.73828;975.7695;;;;
2019/12/31 10:53:39;;;;;;;11.8;9.2;;;;;;;7.14;52.70898;975.7999;;;;
2019/12/31 10:56:04;;;;;;;11;9.5;;;;;;;7.34;52.62793;975.9702;;;;
2019/12/31 10:58:30;;;;;;;11.2;9.4;;;;;;;7.4;53.05469;975.9454;;;;
2019/12/31 11:00:55;;;;;;;11.6;8.7;;;;;;;7.43;51.47656;975.8142;;;;
2019/12/31 11:03:20;;;;;;;11.8;8.8;;;;;;;7.51;51.86914;975.8125;;;;
2019/12/31 11:05:45;;;;;;;10.1;8.6;;;;;;;7.66;50.74609;975.7162;;;;
2019/12/31 11:08:10;;;;;;;11.7;9.2;;;;;;;7.67;50.93359;975.5933;;;;
2019/12/31 11:10:36;;;;;;;11.7;8.7;;;;;;;7.79;49.87598;975.5519;;;;
2019/12/31 11:13:01;;;;;;;10.3;8.5;;;;;;;7.84;50.24219;975.5949;;;;
2019/12/31 11:15:26;;;;;;;11.5;8.8;;;;;;;7.87;49.58301;975.6166;;;;
2019/12/31 11:17:51;;;;;;;9.8;8.2;;;;;;;7.88;49.29395;975.6809;;;;
2019/12/31 11:20:16;;;;;;;10.3;7.7;;;;;;;7.83;47.91211;975.6414;;;;
2019/12/31 11:22:41;;;;;;;10.6;8.2;;;;;;;7.95;48.36914;975.6057;;;;
2019/12/31 11:25:06;;;;;;;10;7.7;;;;;;;7.98;47.55664;975.64;;;;
2019/12/31 11:27:32;;;;;;;9.8;7.7;;;;;;;8;46.87207;975.6097;;;;
2019/12/31 11:29:57;;;;;;;9.5;7.6;;;;;;;8.07;46.28516;975.6071;;;;
2019/12/31 11:32:22;;;;;;;9.7;7.7;;;;;;;8.19;45.33105;975.5328;;;;
2019/12/31 11:34:47;;;;;;;11.1;7.9;;;;;;;8.34;47.06055;975.4915;;;;
2019/12/31 11:37:12;;;;;;;10.5;7.9;;;;;;;8.26;45.78027;975.5364;;;;
2019/12/31 11:39:37;;;;;;;9.1;7.9;;;;;;;8.36;46.04688;975.5864;;;;
2019/12/31 11:42:03;;;;;;;10.9;7.7;;;;;;;8.55;44.97168;975.44;;;;
2019/12/31 11:44:28;;;;;;;10.8;7.1;;;;;;;8.51;44.08105;975.4689;;;;
2019/12/31 11:46:53;;;;;;;9;6.7;;;;;;;8.48;43.09766;975.394;;;;
2019/12/31 11:49:18;;;;;;;8.5;7.1;;;;;;;8.66;43.67676;975.4373;;;;
2019/12/31 11:51:43;;;;;;;9.7;7.6;;;;;;;8.77;43.59375;975.3421;;;;
2019/12/31 11:54:08;;;;;;;8.6;7.3;;;;;;;8.89;43.55957;975.3458;;;;
2019/12/31 11:56:34;;;;;;;10.5;7.2;;;;;;;9.06;44.06738;975.3039;;;;
2019/12/31 11:58:59;;;;;;;8.3;6.6;;;;;;;9.29;43.01465;975.2253;;;;
2019/12/31 12:01:24;;;;;;;8.8;7.3;;;;;;;9.49;42.43945;975.1934;;;;
2019/12/31 12:03:49;;;;;;;8.5;6.9;;;;;;;9.59;42.49512;975.23;;;;
2019/12/31 12:06:14;;;;;;;8.9;7.3;;;;;;;9.73;42.8252;975.1663;;;;
2019/12/31 12:08:39;;;;;;;9.2;7.2;;;;;;;9.72;42.87207;975.1721;;;;
2019/12/31 12:11:05;;;;;;;9.2;7.3;;;;;;;9.54;42.6084;975.1019;;;;
2019/12/31 12:13:30;;;;;;;10.5;7;;;;;;;9.65;41.71875;975.1043;;;;
2019/12/31 12:15:55;;;;;;;10.1;7.5;;;;;;;9.68;41.14844;975.0583;;;;
2019/12/31 12:18:20;;;;;;;8.6;7;;;;;;;9.62;42.125;975.122;;;;
2019/12/31 12:20:45;;;;;;;11.1;7.5;;;;;;;9.81;41.91992;975.08;;;;
2019/12/31 12:23:10;;;;;;;8.7;6.9;;;;;;;9.82;42.02734;975.1075;;;;
2019/12/31 12:25:36;;;;;;;8.8;6.6;;;;;;;9.73;40.14648;975.1127;;;;
2019/12/31 12:28:01;;;;;;;8.2;6.4;;;;;;;9.71;40.01563;975.044;;;;
2019/12/31 12:30:26;;;;;;;8.2;6.5;;;;;;;9.76;39.43555;975.0193;;;;
2019/12/31 12:32:51;;;;;;;7.8;6.5;;;;;;;9.73;40.54492;975.0272;;;;
2019/12/31 12:35:16;;;;;;;7.5;6.2;;;;;;;9.6;40.13477;974.9822;;;;
2019/12/31 12:37:41;;;;;;;8.6;6.4;;;;;;;9.58;40.6582;974.9011;;;;
2019/12/31 12:40:07;;;;;;;8.1;6.3;;;;;;;9.4;39.21582;974.9688;;;;
2019/12/31 12:42:32;;;;;;;9.3;6.6;;;;;;;9.43;39.26563;974.9763;;;;
2019/12/31 12:44:57;;;;;;;8.3;6.7;;;;;;;9.46;39.20996;975.0078;;;;
2019/12/31 12:47:22;;;;;;;8.5;6.7;;;;;;;9.41;40.92383;975.0999;;;;
2019/12/31 12:49:47;;;;;;;9.4;6.9;;;;;;;9.44;40.48242;975.1333;;;;
2019/12/31 12:52:12;;;;;;;8.9;6.7;;;;;;;9.43;41.31055;975.1478;;;;
2019/12/31 12:54:38;;;;;;;9;7;;;;;;;9.48;41.04688;975.1248;;;;
2019/12/31 12:57:03;;;;;;;9.4;7;;;;;;;9.57;41.72168;975.1817;;;;
2019/12/31 12:59:28;;;;;;;9.3;7.2;;;;;;;9.54;43.56641;975.2433;;;;
2019/12/31 13:03:38;;;;;;;12;8.6;;;;;;;9.5;42.82617;975.2223;;;;
2019/12/31 13:04:24;;;;;;;11.7;8.3;;;;;;;9.55;43.70703;975.2511;;;;
2019/12/31 13:06:43;;;;;;;9.9;8.4;;;;;;;9.44;43.95313;975.1866;;;;
2019/12/31 13:09:09;;;;;;;9;7.5;;;;;;;9.35;43.16211;975.1844;;;;
2019/12/31 13:11:33;;;;;;;9.3;7.8;;;;;;;9.18;44.40625;975.2236;;;;
2019/12/31 13:13:58;;;;;;;9.9;7.6;;;;;;;9.13;44.20215;975.2479;;;;
2019/12/31 13:16:24;;;;;;;9.9;8.1;;;;;;;9.16;44.38184;975.287;;;;
2019/12/31 13:20:55;;;;;;;9.5;7.7;;;;;;;9.08;44.26758;975.3059;;;;
2019/12/31 13:23:20;;;;;;;10;7.6;;;;;;;9.03;45.13867;975.3117;;;;
2019/12/31 13:25:45;;;;;;;9.9;8;;;;;;;9.04;45.03418;975.3156;;;;
2019/12/31 13:28:10;;;;;;;11.2;8;;;;;;;9.12;45.21875;975.3058;;;;
2019/12/31 13:30:36;;;;;;;11.5;8.5;;;;;;;9.12;45.1123;975.3229;;;;
2019/12/31 13:33:01;;;;;;;10.5;8.2;;;;;;;9.14;45.97949;975.4725;;;;
2019/12/31 13:35:26;;;;;;;10.8;8.5;;;;;;;9.12;45.53418;975.4973;;;;
2019/12/31 13:37:51;;;;;;;10.1;8.3;;;;;;;9.32;45.53125;975.4797;;;;
2019/12/31 13:40:16;;;;;;;11.4;8.8;;;;;;;9.5;45.40918;975.5236;;;;
2019/12/31 13:42:41;;;;;;;10.6;8.2;;;;;;;9.55;45.4502;975.6158;;;;
2019/12/31 13:45:06;;;;;;;11.3;9.2;;;;;;;9.65;45.00391;975.5725;;;;
2019/12/31 13:47:31;;;;;;;10.3;8.3;;;;;;;9.76;44.72363;975.559;;;;
2019/12/31 13:49:56;;;;;;;12.3;8.8;;;;;;;9.86;44.23047;975.5709;;;;
2019/12/31 13:52:21;;;;;;;10.7;8.8;;;;;;;9.74;44.44141;975.5981;;;;
2019/12/31 13:54:46;;;;;;;10.7;8.4;;;;;;;9.65;43.73047;975.6276;;;;
2019/12/31 13:57:12;;;;;;;10.2;8.4;;;;;;;9.56;43.3584;975.6583;;;;
2019/12/31 13:59:37;;;;;;;11.1;8.7;;;;;;;9.53;44.1748;975.7137;;;;
2019/12/31 14:02:02;;;;;;;12.8;9;;;;;;;9.43;44.39648;975.7173;;;;
2019/12/31 14:04:27;;;;;;;9.6;8.4;;;;;;;9.38;44.73047;975.7477;;;;
2019/12/31 14:06:52;;;;;;;12.6;8.7;;;;;;;9.29;44.31348;975.782;;;;
2019/12/31 14:09:17;;;;;;;14.2;8.5;;;;;;;9.15;45.19824;975.6844;;;;
2019/12/31 14:11:42;;;;;;;12.1;8.9;;;;;;;9.18;44.57031;975.6727;;;;
2019/12/31 14:14:07;;;;;;;14.6;9.6;;;;;;;9.09;45.72949;975.7561;;;;
2019/12/31 14:16:32;;;;;;;13.4;9;;;;;;;9;46.06934;975.8081;;;;
2019/12/31 14:18:57;;;;;;;12.2;9;;;;;;;8.98;45.9502;975.7726;;;;
2019/12/31 14:21:22;;;;;;;12;8.9;;;;;;;8.98;46.05566;975.7872;;;;
2019/12/31 14:23:48;;;;;;;12.8;9.5;;;;;;;8.86;45.6582;975.8451;;;;
2019/12/31 14:26:13;;;;;;;15.8;9.4;;;;;;;8.76;46.9541;975.8631;;;;
2019/12/31 14:28:38;;;;;;;14.9;9.3;;;;;;;8.64;48.17773;975.8764;;;;
2019/12/31 14:31:03;;;;;;;12.7;8.9;;;;;;;8.6;48.34961;975.8477;;;;